createdAt,value
2023-02-13T00:02:25.470Z,13.20
2023-02-13T00:05:29.888Z,15.02
2023-02-13T00:08:34.834Z,14.13
2023-02-13T00:11:39.547Z,12.55
2023-02-13T00:14:44.226Z,14.38
2023-02-13T00:17:48.770Z,12.35
2023-02-13T00:21:07.791Z,12.25
2023-02-13T00:24:12.917Z,13.30
2023-02-13T00:27:17.527Z,13.95
2023-02-13T00:30:22.782Z,14.75
2023-02-13T00:33:28.872Z,14.45
2023-02-13T00:36:33.793Z,14.27
2023-02-13T00:39:38.594Z,14.50
2023-02-13T00:42:43.361Z,12.88
2023-02-13T00:45:48.133Z,12.63
2023-02-13T00:48:52.525Z,14.63
2023-02-13T00:51:57.102Z,14.27
2023-02-13T00:55:01.843Z,13.25
2023-02-13T00:58:06.726Z,12.05
2023-02-13T01:01:11.912Z,12.60
2023-02-13T01:04:16.943Z,13.90
2023-02-13T01:07:21.733Z,13.18
2023-02-13T01:10:27.096Z,12.50
2023-02-13T01:13:31.502Z,12.30
2023-02-13T01:16:36.170Z,12.45
2023-02-13T01:19:41.524Z,13.18
2023-02-13T01:22:46.809Z,14.70
2023-02-13T01:25:51.877Z,13.15
2023-02-13T01:28:58.153Z,13.30
2023-02-13T01:32:05.192Z,11.70
2023-02-13T01:35:11.756Z,13.35
2023-02-13T01:38:17.327Z,11.73
2023-02-13T01:41:23.510Z,13.93
2023-02-13T01:44:56.128Z,12.90
2023-02-13T01:48:07.158Z,12.48
2023-02-13T01:51:19.391Z,12.07
2023-02-13T01:54:31.092Z,13.30
2023-02-13T01:57:40.720Z,12.73
2023-02-13T02:00:49.774Z,13.40
2023-02-13T02:04:19.436Z,11.98
2023-02-13T02:07:29.895Z,12.20
2023-02-13T02:10:40.226Z,14.13
2023-02-13T02:13:46.425Z,13.13
2023-02-13T02:16:51.029Z,15.27
2023-02-13T02:20:23.089Z,14.32
2023-02-13T02:23:45.025Z,14.35
2023-02-13T02:27:18.261Z,14.68
2023-02-13T02:30:43.410Z,13.52
2023-02-13T02:34:11.724Z,11.98
2023-02-13T02:37:45.242Z,13.27
2023-02-13T02:41:05.049Z,12.98
2023-02-13T02:44:43.473Z,12.55
2023-02-13T02:48:18.985Z,13.68
2023-02-13T02:52:34.693Z,15.00
2023-02-13T02:55:48.353Z,12.50
2023-02-13T02:59:22.945Z,14.23
2023-02-13T03:02:49.473Z,13.70
2023-02-13T03:06:11.305Z,13.88
2023-02-13T03:09:43.962Z,14.15
2023-02-13T03:13:19.897Z,13.75
2023-02-13T03:16:49.259Z,14.73
2023-02-13T03:20:27.757Z,13.90
2023-02-13T03:24:07.654Z,12.85
2023-02-13T03:27:53.154Z,13.88
2023-02-13T03:31:37.574Z,13.65
2023-02-13T03:35:12.344Z,13.02
2023-02-13T03:42:10.050Z,11.20
2023-02-13T03:45:43.981Z,12.00
2023-02-13T03:49:07.634Z,12.50
2023-02-13T03:52:34.214Z,13.30
2023-02-13T03:56:03.520Z,11.90
2023-02-13T03:59:28.547Z,13.15
2023-02-13T04:02:37.711Z,13.65
2023-02-13T04:05:50.059Z,12.90
2023-02-13T04:08:54.787Z,13.50
2023-02-13T04:12:15.522Z,13.18
2023-02-13T04:15:27.798Z,12.93
2023-02-13T04:18:34.108Z,13.55
2023-02-13T04:21:40.462Z,12.30
2023-02-13T04:24:45.918Z,13.77
2023-02-13T04:27:50.527Z,14.05
2023-02-13T04:30:55.500Z,14.65
2023-02-13T04:34:00.512Z,14.65
2023-02-13T04:37:05.437Z,13.38
2023-02-13T04:40:10.677Z,14.25
2023-02-13T04:43:15.221Z,14.73
2023-02-13T04:46:20.433Z,14.32
2023-02-13T04:49:24.751Z,14.50
2023-02-13T04:52:29.359Z,13.93
2023-02-13T04:55:34.307Z,15.68
2023-02-13T04:58:39.135Z,15.38
2023-02-13T05:01:44.044Z,16.48
2023-02-13T05:04:48.593Z,15.27
2023-02-13T05:07:52.931Z,15.55
2023-02-13T05:10:58.079Z,15.07
2023-02-13T05:14:02.822Z,14.65
2023-02-13T05:17:07.587Z,16.02
2023-02-13T05:20:14.176Z,13.77
2023-02-13T05:23:24.290Z,15.10
2023-02-13T05:26:28.970Z,14.55
2023-02-13T05:29:33.303Z,16.13
2023-02-13T05:32:37.747Z,15.73
2023-02-13T05:35:42.583Z,14.35
2023-02-13T05:38:47.658Z,14.02
2023-02-13T05:41:52.340Z,16.75
2023-02-13T05:44:56.906Z,14.98
2023-02-13T05:48:01.484Z,15.90
2023-02-13T05:51:06.482Z,16.67
2023-02-13T05:54:11.484Z,16.27
2023-02-13T05:57:16.069Z,15.60
2023-02-13T06:00:21.666Z,14.27
2023-02-13T06:03:28.395Z,13.75
2023-02-13T06:06:33.137Z,14.50
2023-02-13T06:09:37.764Z,15.13
2023-02-13T06:12:43.909Z,14.13
2023-02-13T06:15:48.623Z,15.52
2023-02-13T06:18:53.438Z,18.25
2023-02-13T06:21:58.016Z,15.80
2023-02-13T06:25:02.505Z,16.13
2023-02-13T06:28:07.204Z,16.88
2023-02-13T06:31:12.045Z,17.83
2023-02-13T06:34:16.624Z,17.27
2023-02-13T06:37:21.283Z,18.30
2023-02-13T06:40:26.133Z,16.52
2023-02-13T06:43:31.319Z,17.40
2023-02-13T06:46:35.791Z,18.38
2023-02-13T06:49:40.557Z,16.27
2023-02-13T06:52:51.098Z,17.02
2023-02-13T06:55:57.275Z,20.95
2023-02-13T06:59:01.788Z,20.88
2023-02-13T07:02:06.293Z,22.65
2023-02-13T07:05:11.754Z,20.48
2023-02-13T07:08:16.511Z,19.27
2023-02-13T07:11:23.068Z,17.08
2023-02-13T07:14:27.313Z,17.33
2023-02-13T07:17:32.429Z,20.33
2023-02-13T07:20:37.586Z,16.27
2023-02-13T07:23:42.344Z,15.82
2023-02-13T07:26:47.036Z,17.73
2023-02-13T07:29:51.244Z,16.60
2023-02-13T07:33:00.871Z,19.00
2023-02-13T07:36:06.500Z,18.55
2023-02-13T07:39:11.061Z,18.45
2023-02-13T07:42:15.872Z,17.95
2023-02-13T07:45:20.397Z,19.70
2023-02-13T07:48:28.441Z,22.15
2023-02-13T07:51:33.206Z,22.08
2023-02-13T07:54:47.222Z,20.10
2023-02-13T07:57:52.693Z,21.42
2023-02-13T08:00:57.589Z,20.08
2023-02-13T08:04:02.355Z,20.40
2023-02-13T08:07:07.459Z,18.73
2023-02-13T08:10:32.227Z,19.63
2023-02-13T08:13:37.487Z,22.42
2023-02-13T08:16:41.920Z,20.67
2023-02-13T08:19:46.378Z,22.27
2023-02-13T08:22:51.837Z,21.38
2023-02-13T08:26:01.861Z,22.85
2023-02-13T08:29:07.299Z,21.65
2023-02-13T08:32:12.576Z,23.23
2023-02-13T08:35:17.402Z,21.77
2023-02-13T08:38:22.046Z,24.65
2023-02-13T08:41:27.077Z,21.83
2023-02-13T08:44:32.024Z,22.10
2023-02-13T08:47:36.515Z,24.30
2023-02-13T08:50:40.935Z,20.05
2023-02-13T08:53:45.836Z,23.10
2023-02-13T08:56:50.539Z,19.80
2023-02-13T08:59:55.364Z,22.88
2023-02-13T09:03:02.739Z,23.08
2023-02-13T09:06:07.497Z,20.60
2023-02-13T09:09:12.312Z,23.17
2023-02-13T09:12:17.001Z,22.35
2023-02-13T09:15:21.495Z,22.75
2023-02-13T09:18:27.360Z,24.38
2023-02-13T09:21:32.281Z,22.38
2023-02-13T09:24:37.122Z,21.50
2023-02-13T09:27:42.049Z,24.15
2023-02-13T09:30:49.277Z,23.10
2023-02-13T09:33:54.481Z,24.20
2023-02-13T09:36:59.169Z,21.65
2023-02-13T09:40:04.586Z,23.10
2023-02-13T09:43:22.950Z,23.25
2023-02-13T09:46:38.900Z,21.63
2023-02-13T09:49:58.699Z,21.35
2023-02-13T09:53:05.967Z,22.27
2023-02-13T09:56:16.606Z,23.42
2023-02-13T09:59:32.531Z,22.38
2023-02-13T10:03:01.625Z,20.80
2023-02-13T10:06:32.381Z,20.20
2023-02-13T10:10:08.940Z,22.50
2023-02-13T10:13:55.380Z,19.85
2023-02-13T10:17:14.134Z,20.65
2023-02-13T10:20:45.486Z,20.27
2023-02-13T10:23:56.081Z,19.90
2023-02-13T10:27:18.147Z,21.10
2023-02-13T10:30:33.398Z,18.75
2023-02-13T10:33:52.685Z,19.95
2023-02-13T10:36:58.380Z,19.33
2023-02-13T10:40:10.435Z,20.45
2023-02-13T10:43:21.281Z,21.98
2023-02-13T10:47:14.836Z,22.27
2023-02-13T10:51:00.711Z,21.85
2023-02-13T10:54:19.587Z,21.58
2023-02-13T10:57:53.566Z,22.13
2023-02-13T11:01:33.982Z,19.23
2023-02-13T11:04:41.580Z,21.02
2023-02-13T11:07:47.546Z,19.98
2023-02-13T11:10:53.227Z,21.02
2023-02-13T11:14:26.058Z,20.80
2023-02-13T11:17:39.612Z,21.35
2023-02-13T11:20:48.059Z,21.25
2023-02-13T11:23:56.301Z,20.77
2023-02-13T11:27:13.685Z,23.25
2023-02-13T11:30:36.202Z,21.80
2023-02-13T11:33:41.935Z,18.08
2023-02-13T11:36:47.323Z,19.67
2023-02-13T11:39:56.347Z,18.85
2023-02-13T11:43:01.050Z,21.33
2023-02-13T11:46:17.401Z,20.67
2023-02-13T11:49:34.553Z,21.08
2023-02-13T11:52:39.075Z,23.85
2023-02-13T11:55:45.903Z,25.50
2023-02-13T11:59:02.195Z,21.70
2023-02-13T12:02:20.349Z,21.80
2023-02-13T12:05:27.807Z,22.42
2023-02-13T12:08:36.942Z,20.48
2023-02-13T12:11:54.097Z,20.77
2023-02-13T12:15:01.233Z,20.90
2023-02-13T12:18:05.658Z,19.10
2023-02-13T12:21:41.921Z,18.88
2023-02-13T12:25:46.263Z,22.20
2023-02-13T12:29:55.483Z,19.40
2023-02-13T12:33:37.509Z,19.58
2023-02-13T12:37:21.668Z,19.98
2023-02-13T12:41:07.072Z,22.70
2023-02-13T12:44:30.103Z,22.02
2023-02-13T12:47:52.459Z,21.80
2023-02-13T12:51:57.411Z,23.15
2023-02-13T12:55:32.204Z,23.73
2023-02-13T12:58:53.895Z,20.38
2023-02-13T13:02:19.915Z,22.95
2023-02-13T13:06:10.902Z,24.27
2023-02-13T13:10:04.177Z,22.00
2023-02-13T13:13:27.882Z,22.73
2023-02-13T13:17:15.813Z,22.25
2023-02-13T13:20:59.181Z,21.85
2023-02-13T13:24:42.188Z,24.07
2023-02-13T13:27:53.134Z,26.15
2023-02-13T13:30:59.611Z,24.17
2023-02-13T13:34:23.472Z,23.88
2023-02-13T13:37:37.753Z,23.77
2023-02-13T13:41:15.068Z,23.40
2023-02-13T13:44:28.383Z,22.30
2023-02-13T13:48:22.005Z,22.15
2023-02-13T13:51:27.031Z,21.52
2023-02-13T13:54:36.135Z,22.90
2023-02-13T13:57:40.913Z,22.50
2023-02-13T14:00:45.293Z,20.85
2023-02-13T14:04:03.797Z,21.15
2023-02-13T14:07:24.412Z,23.15
2023-02-13T14:10:28.725Z,19.83
2023-02-13T14:13:40.657Z,21.42
2023-02-13T14:16:46.736Z,21.23
2023-02-13T14:19:53.220Z,21.17
2023-02-13T14:23:12.805Z,17.75
2023-02-13T14:26:17.404Z,20.08
2023-02-13T14:29:33.096Z,20.15
2023-02-13T14:32:41.107Z,21.08
2023-02-13T14:35:45.774Z,19.17
2023-02-13T14:39:21.045Z,20.70
2023-02-13T14:42:29.854Z,17.80
2023-02-13T14:45:47.495Z,18.17
2023-02-13T14:49:12.470Z,19.95
2023-02-13T14:52:27.679Z,19.60
2023-02-13T14:55:40.412Z,18.52
2023-02-13T14:58:56.389Z,19.30
2023-02-13T15:02:08.347Z,17.02
2023-02-13T15:05:20.112Z,17.88
2023-02-13T15:08:34.932Z,18.45
2023-02-13T15:11:43.941Z,19.52
2023-02-13T15:14:48.859Z,18.40
2023-02-13T15:18:19.006Z,17.60
2023-02-13T15:21:25.612Z,18.58
2023-02-13T15:24:47.103Z,17.33
2023-02-13T15:27:58.737Z,16.40
2023-02-13T15:31:17.598Z,16.55
2023-02-13T15:34:35.000Z,16.95
2023-02-13T15:37:39.753Z,18.33
2023-02-13T15:40:44.703Z,17.88
2023-02-13T15:43:52.756Z,15.80
2023-02-13T15:47:07.476Z,14.90
2023-02-13T15:50:37.225Z,15.68
2023-02-13T15:53:58.944Z,17.52
2023-02-13T15:57:07.155Z,19.00
2023-02-13T16:00:39.366Z,20.48
2023-02-13T16:03:47.964Z,19.90
2023-02-13T16:06:58.182Z,16.95
2023-02-13T16:10:16.632Z,20.75
2023-02-13T16:13:21.625Z,19.30
2023-02-13T16:16:28.269Z,18.55
2023-02-13T16:19:54.380Z,18.45
2023-02-13T16:23:06.825Z,17.35
2023-02-13T16:26:15.068Z,17.63
2023-02-13T16:29:23.588Z,16.20
2023-02-13T16:32:38.214Z,16.88
2023-02-13T16:35:57.386Z,16.02
2023-02-13T16:39:18.673Z,16.38
2023-02-13T16:42:23.505Z,17.50
2023-02-13T16:45:28.410Z,16.58
2023-02-13T16:48:33.263Z,15.32
2023-02-13T16:51:43.824Z,16.13
2023-02-13T16:54:59.325Z,17.10
2023-02-13T16:58:05.689Z,16.25
2023-02-13T17:01:18.170Z,16.98
2023-02-13T17:04:25.177Z,17.67
2023-02-13T17:07:34.359Z,18.02
2023-02-13T17:10:42.037Z,19.67
2023-02-13T17:13:46.873Z,18.17
2023-02-13T17:16:51.596Z,18.67
2023-02-13T17:19:56.363Z,19.55
2023-02-13T17:23:05.811Z,19.15
2023-02-13T17:26:10.175Z,19.80
2023-02-13T17:29:14.681Z,18.67
2023-02-13T17:32:24.643Z,19.35
2023-02-13T17:35:30.775Z,19.38
2023-02-13T17:38:35.505Z,19.65
2023-02-13T17:41:42.802Z,19.15
2023-02-13T17:44:48.036Z,19.52
2023-02-13T17:47:53.932Z,17.95
2023-02-13T17:50:58.905Z,17.58
2023-02-13T17:54:03.662Z,18.85
2023-02-13T17:57:08.499Z,17.80
2023-02-13T18:00:15.250Z,18.90
2023-02-13T18:03:19.759Z,21.05
2023-02-13T18:06:24.502Z,18.45
2023-02-13T18:09:29.356Z,18.55
2023-02-13T18:12:33.779Z,19.15
2023-02-13T18:15:44.693Z,17.42
2023-02-13T18:18:49.291Z,20.70
2023-02-13T18:21:53.846Z,19.73
2023-02-13T18:24:58.435Z,21.27
2023-02-13T18:28:03.708Z,22.02
2023-02-13T18:31:10.638Z,23.70
2023-02-13T18:34:15.089Z,20.35
2023-02-13T18:37:20.189Z,20.13
2023-02-13T18:40:24.725Z,20.65
2023-02-13T18:43:29.502Z,20.10
2023-02-13T18:46:34.856Z,24.13
2023-02-13T18:49:39.647Z,22.35
2023-02-13T18:52:44.274Z,22.55
2023-02-13T18:55:48.903Z,24.85
2023-02-13T18:58:53.410Z,21.48
2023-02-13T19:01:58.792Z,21.95
2023-02-13T19:05:03.588Z,21.65
2023-02-13T19:08:08.417Z,21.38
2023-02-13T19:11:17.300Z,20.13
2023-02-13T19:14:22.785Z,18.23
2023-02-13T19:17:27.386Z,20.70
2023-02-13T19:20:32.115Z,19.42
2023-02-13T19:23:38.405Z,19.80
2023-02-13T19:26:43.485Z,20.80
2023-02-13T19:29:48.331Z,18.23
2023-02-13T19:32:54.447Z,21.77
2023-02-13T19:36:01.651Z,20.17
2023-02-13T19:39:09.116Z,20.35
2023-02-13T19:42:14.526Z,20.15
2023-02-13T19:45:19.701Z,20.92
2023-02-13T19:48:24.338Z,20.50
2023-02-13T19:51:31.955Z,19.33
2023-02-13T19:54:36.241Z,19.58
2023-02-13T19:57:40.728Z,19.55
2023-02-13T20:00:45.409Z,17.88
2023-02-13T20:03:50.707Z,16.15
2023-02-13T20:06:58.702Z,17.55
2023-02-13T20:10:05.249Z,17.88
2023-02-13T20:13:10.067Z,18.65
2023-02-13T20:16:17.013Z,17.20
2023-02-13T20:19:22.310Z,18.98
2023-02-13T20:22:27.026Z,18.63
2023-02-13T20:25:32.687Z,17.60
2023-02-13T20:28:38.127Z,16.95
2023-02-13T20:31:43.148Z,15.70
2023-02-13T20:34:59.385Z,16.00
2023-02-13T20:38:05.095Z,16.50
2023-02-13T20:41:12.602Z,15.25
2023-02-13T20:44:22.591Z,14.55
2023-02-13T20:47:27.241Z,16.20
2023-02-13T20:50:31.988Z,14.93
2023-02-13T20:53:37.710Z,14.85
2023-02-13T20:56:42.385Z,14.77
2023-02-13T20:59:47.474Z,13.75
2023-02-13T21:02:52.299Z,13.63
2023-02-13T21:05:57.236Z,12.70
2023-02-13T21:09:04.425Z,14.00
2023-02-13T21:12:09.340Z,13.75
2023-02-13T21:15:14.357Z,13.07
2023-02-13T21:18:21.382Z,12.65
2023-02-13T21:21:31.660Z,13.23
2023-02-13T21:24:37.382Z,12.30
2023-02-13T21:27:42.744Z,13.93
2023-02-13T21:30:47.716Z,12.80
2023-02-13T21:33:52.884Z,12.38
2023-02-13T21:36:57.706Z,12.88
2023-02-13T21:40:02.482Z,12.77
2023-02-13T21:43:07.386Z,12.93
2023-02-13T21:46:24.367Z,12.35
2023-02-13T21:49:29.232Z,12.75
2023-02-13T21:52:35.461Z,12.60
2023-02-13T21:55:40.392Z,13.13
2023-02-13T21:58:46.490Z,12.45
2023-02-13T22:01:52.496Z,12.57
2023-02-13T22:04:57.280Z,12.55
2023-02-13T22:08:11.053Z,12.00
2023-02-13T22:11:18.802Z,11.38
2023-02-13T22:14:23.575Z,11.55
2023-02-13T22:17:33.774Z,11.13
2023-02-13T22:20:38.369Z,11.80
2023-02-13T22:23:45.261Z,12.77
2023-02-13T22:26:49.876Z,13.75
2023-02-13T22:29:54.600Z,13.07
2023-02-13T22:32:59.358Z,11.98
2023-02-13T22:36:04.431Z,12.70
2023-02-13T22:39:11.081Z,12.57
2023-02-13T22:42:16.039Z,11.05
2023-02-13T22:45:20.555Z,12.30
2023-02-13T22:48:25.303Z,11.10
2023-02-13T22:51:34.613Z,12.45
2023-02-13T22:54:39.359Z,12.30
2023-02-13T22:57:47.242Z,12.85
2023-02-13T23:00:51.769Z,11.20
2023-02-13T23:03:57.442Z,10.27
2023-02-13T23:07:02.018Z,10.77
2023-02-13T23:10:07.441Z,10.85
2023-02-13T23:13:11.963Z,10.82
2023-02-13T23:16:17.271Z,11.30
2023-02-13T23:19:22.236Z,10.00
2023-02-13T23:22:27.852Z,10.98
2023-02-13T23:25:32.612Z,10.88
2023-02-13T23:28:37.075Z,10.82
2023-02-13T23:31:42.064Z,9.68
2023-02-13T23:34:46.788Z,11.35
2023-02-13T23:37:52.072Z,10.80
2023-02-13T23:40:56.554Z,9.73
2023-02-13T23:44:00.871Z,9.65
2023-02-13T23:47:06.295Z,10.25
2023-02-13T23:50:11.049Z,9.13
2023-02-13T23:53:15.661Z,8.88
2023-02-13T23:56:20.645Z,10.30
2023-02-13T23:59:25.790Z,10.63
